Time;durP1;ratioP1;P1;durP2;ratioP2;P2;SDS_P1;SDS_P2;PMS_P1;PMS_P2;Temp;Humidity;BMP_temperature;BMP_pressure;BME280_temperature;BME280_humidity;BME280_pressure;Samples;Min_cycle;Max_cycle;Signal;HPM_P1;HPM_P2
2022/11/08 00:02:06;;;;;;;25.70;16.25;;;;;;;7.31;87.15;100411.67;1792134;80;25581;-59
2022/11/08 00:04:33;;;;;;;25.08;15.38;;;;;;;7.31;87.14;100403.59;1792086;80;27847;-59
2022/11/08 00:15:14;;;;;;;28.23;16.97;;;;;;;7.40;87.31;100411.30;1792112;80;25442;-57
2022/11/08 00:17:40;;;;;;;24.55;16.48;;;;;;;7.40;87.22;100407.81;1792029;80;27524;-57
2022/11/08 00:20:08;;;;;;;25.92;16.50;;;;;;;7.43;87.31;100413.42;1791945;80;25827;-55
2022/11/08 00:22:35;;;;;;;23.32;15.40;;;;;;;7.43;87.32;100408.04;1792016;80;25592;-59
2022/11/08 00:25:01;;;;;;;27.93;16.85;;;;;;;7.44;87.34;100405.63;1792076;80;25561;-57
2022/11/08 00:27:27;;;;;;;25.48;16.37;;;;;;;7.46;87.28;100408.03;1792111;80;25544;-58
2022/11/08 00:31:02;;;;;;;23.92;16.40;;;;;;;7.48;87.33;100416.61;1792015;80;27517;-55
2022/11/08 00:33:29;;;;;;;28.60;17.32;;;;;;;7.48;87.34;100413.37;1791925;80;25714;-58
2022/11/08 00:36:03;;;;;;;33.13;17.57;;;;;;;7.50;87.33;100413.64;1792084;80;25405;-57
2022/11/08 00:38:42;;;;;;;24.63;16.55;;;;;;;7.51;87.37;100409.32;1792057;80;25482;-56
2022/11/08 00:41:15;;;;;;;30.25;16.48;;;;;;;7.50;87.35;100407.70;1792210;80;25526;-57
2022/11/08 00:43:47;;;;;;;24.43;15.63;;;;;;;7.53;87.41;100409.84;1792062;80;27499;-56
2022/11/08 00:46:20;;;;;;;25.70;15.63;;;;;;;7.54;87.34;100412.77;1791962;80;25343;-56
2022/11/08 00:48:52;;;;;;;22.45;15.48;;;;;;;7.55;87.50;100410.34;1792046;80;25337;-59
2022/11/08 00:51:18;;;;;;;32.17;17.75;;;;;;;7.55;87.43;100412.24;1792032;80;25505;-56
2022/11/08 00:53:44;;;;;;;32.67;15.85;;;;;;;7.56;87.42;100409.79;1792161;80;25525;-57
2022/11/08 00:56:12;;;;;;;22.93;15.78;;;;;;;7.56;87.44;100405.75;1792155;80;28199;-59
2022/11/08 00:58:40;;;;;;;29.20;16.90;;;;;;;7.56;87.43;100405.75;1791990;80;25426;-59
2022/11/08 01:01:16;;;;;;;39.20;17.07;;;;;;;7.58;87.50;100402.25;1791469;80;25551;-57
2022/11/08 01:03:43;;;;;;;24.02;16.05;;;;;;;7.59;87.49;100403.84;1790532;80;25788;-58
2022/11/08 01:06:12;;;;;;;22.32;16.00;;;;;;;7.59;87.45;100404.63;1790828;80;25647;-59
2022/11/08 01:08:39;;;;;;;25.30;16.77;;;;;;;7.60;87.49;100406.25;1791091;80;27497;-57
2022/11/08 01:11:12;;;;;;;25.70;16.80;;;;;;;7.61;87.44;100400.31;1790785;79;25750;-59
2022/11/08 01:13:39;;;;;;;28.20;16.25;;;;;;;7.61;87.47;100404.35;1794045;79;25578;-57
2022/11/08 01:16:15;;;;;;;25.17;16.17;;;;;;;7.62;87.51;100403.27;1795160;79;26212;-58
2022/11/08 01:18:43;;;;;;;26.62;16.15;;;;;;;7.61;87.44;100399.80;1795368;79;25542;-58
2022/11/08 01:21:11;;;;;;;28.45;17.27;;;;;;;7.62;87.41;100401.93;1795299;79;27526;-57
2022/11/08 01:23:37;;;;;;;26.70;16.05;;;;;;;7.62;87.32;100393.85;1795259;79;25624;-57
2022/11/08 01:26:07;;;;;;;25.12;16.25;;;;;;;7.63;87.28;100394.13;1795313;79;25394;-56
2022/11/08 01:28:34;;;;;;;23.80;15.90;;;;;;;7.62;87.29;100394.65;1795264;79;26013;-57
2022/11/08 01:31:09;;;;;;;26.37;16.75;;;;;;;7.62;87.26;100389.81;1795329;79;25618;-57
2022/11/08 01:33:36;;;;;;;26.25;16.00;;;;;;;7.61;87.29;100394.93;1795247;79;27455;-58
2022/11/08 01:36:05;;;;;;;25.97;16.70;;;;;;;7.60;87.41;100388.75;1795165;79;25698;-58
2022/11/08 01:38:32;;;;;;;25.77;16.55;;;;;;;7.59;87.34;100392.52;1795402;79;25365;-54
2022/11/08 01:40:58;;;;;;;29.00;16.97;;;;;;;7.59;87.33;100391.73;1795186;79;25548;-57
2022/11/08 01:43:32;;;;;;;26.62;16.27;;;;;;;7.58;87.42;100388.80;1795297;79;32377;-57
2022/11/08 01:46:23;;;;;;;26.85;16.32;;;;;;;7.58;87.45;100392.83;1795277;79;27458;-59
2022/11/08 01:49:38;;;;;;;24.25;16.23;;;;;;;7.59;87.48;100394.42;1795175;79;25578;-56
2022/11/08 01:52:28;;;;;;;28.02;16.87;;;;;;;7.58;87.54;100389.59;1795197;79;25482;-54
2022/11/08 01:55:06;;;;;;;22.05;14.87;;;;;;;7.58;87.61;100397.67;1795207;79;26151;-56
2022/11/08 01:57:49;;;;;;;25.85;16.75;;;;;;;7.59;87.65;100394.42;1795314;79;25386;-57
2022/11/08 02:00:17;;;;;;;29.85;16.32;;;;;;;7.59;87.74;100392.52;1795174;79;27433;-54
2022/11/08 02:02:57;;;;;;;30.20;16.60;;;;;;;7.58;87.81;100393.63;1795117;79;25859;-56
2022/11/08 02:05:24;;;;;;;24.98;15.68;;;;;;;7.60;87.84;100393.34;1795030;79;25368;-54
2022/11/08 02:08:07;;;;;;;22.45;15.40;;;;;;;7.60;87.84;100391.45;1795127;79;25611;-54
2022/11/08 02:10:37;;;;;;;26.75;16.57;;;;;;;7.62;87.82;100391.16;1795273;79;25435;-56
2022/11/08 02:13:15;;;;;;;29.77;17.87;;;;;;;7.63;87.87;100396.81;1791626;79;27535;-54
2022/11/08 02:15:42;;;;;;;24.57;16.25;;;;;;;7.64;87.88;100390.33;1790056;80;27482;-57
2022/11/08 02:18:10;;;;;;;25.50;15.63;;;;;;;7.65;87.87;100395.98;1790153;80;25464;-57
2022/11/08 02:20:37;;;;;;;26.82;15.32;;;;;;;7.64;87.89;100393.84;1790122;80;25662;-55
2022/11/08 02:23:29;;;;;;;25.35;15.98;;;;;;;7.65;87.85;100391.94;1790211;79;25529;-55
2022/11/08 02:25:55;;;;;;;25.72;16.70;;;;;;;7.67;87.87;100391.10;1790194;80;27719;-55
2022/11/08 02:28:21;;;;;;;25.00;15.18;;;;;;;7.66;87.90;100391.66;1790104;80;25434;-55
2022/11/08 02:30:48;;;;;;;27.10;16.60;;;;;;;7.65;87.82;100394.08;1790167;79;25387;-54
2022/11/08 02:33:18;;;;;;;26.70;16.62;;;;;;;7.64;87.89;100387.11;1790145;80;25463;-53
2022/11/08 02:35:53;;;;;;;27.75;15.75;;;;;;;7.64;87.90;100395.70;1790216;80;25533;-55
2022/11/08 02:38:20;;;;;;;24.43;15.85;;;;;;;7.64;87.98;100388.98;1790165;80;27538;-54
2022/11/08 02:40:53;;;;;;;22.87;15.55;;;;;;;7.63;88.05;100386.84;1790044;80;25400;-58
2022/11/08 02:43:21;;;;;;;23.90;15.45;;;;;;;7.64;88.11;100390.33;1790211;80;25571;-55
2022/11/08 02:45:48;;;;;;;22.52;15.13;;;;;;;7.63;88.25;100392.22;1790142;79;25511;-57
2022/11/08 02:48:15;;;;;;;25.12;16.73;;;;;;;7.62;88.21;100383.09;1790228;80;25615;-56
2022/11/08 02:50:41;;;;;;;23.05;15.88;;;;;;;7.63;88.25;100385.50;1790181;80;28156;-58
2022/11/08 02:53:08;;;;;;;28.55;16.55;;;;;;;7.65;88.39;100374.44;1790045;80;25732;-55
2022/11/08 02:55:35;;;;;;;24.12;16.00;;;;;;;7.63;88.28;100374.73;1790147;79;25565;-54
2022/11/08 02:58:03;;;;;;;23.02;15.80;;;;;;;7.64;88.29;100383.08;1790102;80;25488;-54
2022/11/08 03:00:29;;;;;;;24.87;16.17;;;;;;;7.67;88.43;100388.41;1790193;79;25444;-56
2022/11/08 03:02:57;;;;;;;27.25;15.70;;;;;;;7.67;88.45;100381.69;1790158;80;27528;-57
2022/11/08 03:05:26;;;;;;;30.92;15.60;;;;;;;7.69;88.59;100387.58;1790037;80;25797;-57
2022/11/08 03:07:55;;;;;;;21.55;15.30;;;;;;;7.69;88.55;100383.53;1790284;80;25394;-55
2022/11/08 03:10:24;;;;;;;25.20;16.10;;;;;;;7.70;88.52;100385.16;1790126;80;26125;-54
2022/11/08 03:12:56;;;;;;;29.65;17.17;;;;;;;7.73;88.59;100387.27;1790967;79;25391;-56
2022/11/08 03:15:24;;;;;;;23.07;15.03;;;;;;;7.74;88.55;100386.17;1790615;80;27582;-57
2022/11/08 03:17:50;;;;;;;27.73;15.85;;;;;;;7.75;88.53;100389.13;1792024;80;25568;-57
2022/11/08 03:20:18;;;;;;;24.98;15.72;;;;;;;7.76;88.60;100390.72;1792037;80;25364;-53
2022/11/08 03:22:45;;;;;;;25.50;16.70;;;;;;;7.77;88.56;100394.23;1792059;80;26224;-55
2022/11/08 03:25:12;;;;;;;24.50;15.60;;;;;;;7.80;88.58;100394.45;1792110;80;25522;-55
2022/11/08 03:27:38;;;;;;;26.02;15.18;;;;;;;7.82;88.55;100392.83;1792080;80;27451;-56
2022/11/08 03:30:07;;;;;;;27.75;15.60;;;;;;;7.84;88.50;100390.64;1791955;80;25363;-55
2022/11/08 03:32:33;;;;;;;24.10;16.25;;;;;;;7.86;88.53;100391.14;1792095;80;25602;-56
2022/11/08 03:34:59;;;;;;;28.60;16.77;;;;;;;7.86;88.57;100395.98;1792150;80;26180;-55
2022/11/08 03:37:26;;;;;;;28.15;15.60;;;;;;;7.88;88.59;100390.86;1792054;80;25431;-54
2022/11/08 03:39:52;;;;;;;25.25;15.88;;;;;;;7.88;88.52;100395.69;1792082;80;27629;-57
2022/11/08 03:42:19;;;;;;;24.37;16.17;;;;;;;7.89;88.54;100389.78;1792035;80;25584;-56
2022/11/08 03:44:45;;;;;;;28.77;17.05;;;;;;;7.88;88.50;100390.30;1792156;80;25565;-55
2022/11/08 03:47:11;;;;;;;24.60;16.55;;;;;;;7.89;88.57;100397.31;1792134;80;34656;-54
2022/11/08 03:49:37;;;;;;;27.55;15.23;;;;;;;7.90;88.50;100397.58;1792194;80;25591;-56
2022/11/08 03:52:04;;;;;;;26.85;16.75;;;;;;;7.91;88.48;100409.94;1792160;80;27535;-54
2022/11/08 03:54:30;;;;;;;28.40;16.45;;;;;;;7.91;88.50;100409.14;1791953;80;25610;-54
2022/11/08 03:56:55;;;;;;;26.05;16.75;;;;;;;7.91;88.54;100405.11;1792060;80;29998;-57
2022/11/08 03:59:22;;;;;;;28.77;16.52;;;;;;;7.92;88.42;100412.11;1791976;80;25549;-54
2022/11/08 04:01:48;;;;;;;24.35;16.80;;;;;;;7.92;88.42;100411.55;1792110;80;25380;-53
2022/11/08 04:04:14;;;;;;;27.13;16.70;;;;;;;7.92;88.40;100411.55;1792083;80;28132;-57
2022/11/08 04:06:40;;;;;;;27.37;15.65;;;;;;;7.94;88.36;100408.57;1791997;80;32836;-57
2022/11/08 04:09:06;;;;;;;28.07;17.35;;;;;;;7.93;88.36;100405.06;1792060;80;25514;-56
2022/11/08 04:17:02;;;;;;;25.40;16.23;;;;;;;7.92;88.28;100398.64;1792094;80;27526;-54
2022/11/08 04:22:13;;;;;;;24.85;16.60;;;;;;;7.90;88.36;100393.54;1792011;80;25506;-56
2022/11/08 04:24:39;;;;;;;26.33;16.20;;;;;;;7.89;88.36;100395.17;1791985;80;25481;-54
2022/11/08 04:27:05;;;;;;;26.90;16.90;;;;;;;7.89;88.27;100393.83;1792109;80;25386;-57
2022/11/08 04:29:31;;;;;;;28.47;17.40;;;;;;;7.88;88.32;100393.55;1792121;80;27520;-54
2022/11/08 04:31:57;;;;;;;23.92;16.60;;;;;;;7.88;88.40;100394.34;1791977;80;25379;-55
2022/11/08 04:34:23;;;;;;;28.90;16.70;;;;;;;7.85;88.42;100397.09;1792070;80;29987;-55
2022/11/08 04:36:49;;;;;;;26.55;16.80;;;;;;;7.85;88.45;100392.25;1791988;80;34785;-57
2022/11/08 04:39:15;;;;;;;27.00;16.45;;;;;;;7.85;88.48;100394.95;1792091;80;32712;-58
2022/11/08 04:41:41;;;;;;;28.20;16.95;;;;;;;7.85;88.52;100397.09;1792126;80;27498;-57
2022/11/08 04:44:09;;;;;;;25.70;16.93;;;;;;;7.85;88.56;100404.38;1792196;80;25524;-56
2022/11/08 04:46:35;;;;;;;27.22;16.35;;;;;;;7.85;88.61;100403.02;1792216;80;25609;-58
2022/11/08 04:49:02;;;;;;;28.10;17.12;;;;;;;7.86;88.59;100399.23;1792210;80;26210;-58
2022/11/08 04:51:32;;;;;;;25.85;16.60;;;;;;;7.85;88.67;100402.47;1792226;80;25577;-59
2022/11/08 04:54:00;;;;;;;30.52;17.77;;;;;;;7.87;88.69;100400.84;1792243;80;27409;-55
2022/11/08 04:56:29;;;;;;;26.80;16.20;;;;;;;7.86;88.68;100401.92;1792262;80;25378;-58
2022/11/08 04:58:58;;;;;;;28.98;16.73;;;;;;;7.88;88.69;100395.69;1792346;80;25538;-56
2022/11/08 05:01:29;;;;;;;25.72;16.80;;;;;;;7.88;88.66;100398.94;1792260;80;25598;-56
2022/11/08 05:03:57;;;;;;;27.50;16.27;;;;;;;7.88;88.67;100391.66;1792284;80;25416;-54
2022/11/08 05:06:27;;;;;;;29.52;17.20;;;;;;;7.88;88.66;100389.52;1792213;80;28149;-55
2022/11/08 05:08:56;;;;;;;27.35;17.80;;;;;;;7.86;88.59;100387.90;1792123;80;25708;-58
2022/11/08 05:11:26;;;;;;;27.40;16.60;;;;;;;7.86;88.70;100389.25;1792170;80;25362;-56
2022/11/08 05:13:53;;;;;;;30.00;17.20;;;;;;;7.85;88.66;100387.66;1792076;79;25590;-57
2022/11/08 05:16:24;;;;;;;28.23;16.75;;;;;;;7.85;88.70;100388.22;1792313;80;25410;-57
2022/11/08 05:18:52;;;;;;;28.40;17.55;;;;;;;7.85;88.69;100384.17;1791301;80;27492;-58
2022/11/08 05:24:10;;;;;;;27.45;16.93;;;;;;;7.83;88.55;100385.80;1792130;80;25347;-58
2022/11/08 05:26:41;;;;;;;27.85;15.83;;;;;;;7.81;88.49;100386.61;1792096;80;25542;-57
2022/11/08 05:29:09;;;;;;;24.80;16.75;;;;;;;7.80;88.42;100389.63;1792253;80;25539;-58
2022/11/08 05:31:35;;;;;;;29.40;16.60;;;;;;;7.78;88.47;100397.98;1792156;80;27440;-58
2022/11/08 05:34:02;;;;;;;30.95;17.52;;;;;;;7.75;88.40;100396.41;1792070;80;25525;-57
2022/11/08 05:36:29;;;;;;;24.90;16.57;;;;;;;7.72;88.37;100401.02;1792140;80;25518;-56
2022/11/08 05:38:56;;;;;;;26.33;16.52;;;;;;;7.67;88.17;100396.48;1792135;80;25517;-57
2022/11/08 05:41:25;;;;;;;26.33;17.12;;;;;;;7.65;88.33;100406.75;1792160;80;25355;-57
2022/11/08 05:43:54;;;;;;;27.22;16.50;;;;;;;7.61;88.43;100403.83;1792275;80;28013;-57
2022/11/08 05:46:22;;;;;;;31.27;16.97;;;;;;;7.57;88.44;100410.06;1792346;80;25538;-56
2022/11/08 05:48:50;;;;;;;27.02;16.75;;;;;;;7.56;88.38;100423.25;1792257;80;25524;-57
2022/11/08 05:51:18;;;;;;;34.92;16.95;;;;;;;7.50;88.50;100415.78;1792093;80;25644;-58
2022/11/08 05:53:47;;;;;;;26.42;16.17;;;;;;;7.49;88.52;100416.86;1792198;80;25445;-55
2022/11/08 05:56:15;;;;;;;25.52;15.83;;;;;;;7.45;88.57;100419.31;1792302;80;27509;-58
2022/11/08 05:58:41;;;;;;;26.17;16.12;;;;;;;7.41;88.58;100420.19;1792052;80;25542;-54
2022/11/08 06:01:12;;;;;;;29.65;17.92;;;;;;;7.39;88.66;100425.86;1792124;80;25555;-54
2022/11/08 06:03:39;;;;;;;26.02;16.00;;;;;;;7.36;88.91;100430.45;1792117;80;25540;-55
2022/11/08 06:06:14;;;;;;;26.80;17.30;;;;;;;7.32;89.05;100429.43;1792194;80;25586;-57
2022/11/08 06:08:42;;;;;;;29.37;17.60;;;;;;;7.30;89.16;100435.61;1792202;80;27575;-56
2022/11/08 06:11:13;;;;;;;26.80;17.15;;;;;;;7.26;89.41;100428.66;1792078;80;26027;-56
2022/11/08 06:13:41;;;;;;;29.02;17.42;;;;;;;7.25;89.45;100437.00;1792635;79;25388;-53
2022/11/08 06:16:12;;;;;;;27.98;17.42;;;;;;;7.24;89.39;100434.07;1795207;79;25624;-54
2022/11/08 06:18:40;;;;;;;28.05;18.05;;;;;;;7.23;89.56;100443.22;1795241;79;25529;-54
2022/11/08 06:21:10;;;;;;;30.60;17.48;;;;;;;7.24;89.74;100437.55;1795323;79;28039;-58
2022/11/08 06:23:38;;;;;;;24.72;16.67;;;;;;;7.27;89.95;100433.48;1795304;79;25281;-56
2022/11/08 06:26:05;;;;;;;32.13;17.12;;;;;;;7.28;90.04;100433.75;1795252;79;25562;-57
2022/11/08 06:28:33;;;;;;;28.95;17.65;;;;;;;7.32;90.28;100438.02;1795168;79;25487;-57
2022/11/08 06:31:02;;;;;;;27.60;18.45;;;;;;;7.33;90.27;100439.09;1795244;79;25652;-58
2022/11/08 06:33:30;;;;;;;31.30;18.37;;;;;;;7.39;90.47;100439.31;1795350;79;27223;-58
2022/11/08 06:35:57;;;;;;;27.65;17.55;;;;;;;7.42;90.42;100440.09;1795108;79;25582;-58
2022/11/08 06:38:24;;;;;;;29.92;18.80;;;;;;;7.47;90.63;100437.35;1795209;79;25614;-58
2022/11/08 06:40:50;;;;;;;26.37;17.45;;;;;;;7.53;90.64;100439.44;1795142;79;25634;-57
2022/11/08 06:43:16;;;;;;;29.50;17.45;;;;;;;7.58;90.53;100435.91;1795270;79;25428;-56
2022/11/08 06:45:43;;;;;;;30.05;17.67;;;;;;;7.64;90.60;100439.61;1768466;79;27581;-54
2022/11/08 06:48:09;;;;;;;26.82;17.07;;;;;;;7.70;90.50;100432.82;1795111;79;33156;-56
2022/11/08 06:50:36;;;;;;;26.35;16.48;;;;;;;7.75;90.52;100433.56;1795215;79;25392;-55
2022/11/08 06:53:10;;;;;;;29.57;17.87;;;;;;;7.81;90.54;100436.98;1795075;79;25517;-55
2022/11/08 06:55:37;;;;;;;25.12;17.37;;;;;;;7.86;90.45;100441.77;1795259;79;25484;-51
2022/11/08 06:58:06;;;;;;;28.05;17.37;;;;;;;7.92;90.29;100438.48;1795192;79;27441;-73
2022/11/08 07:00:32;;;;;;;25.25;16.05;;;;;;;8.01;90.31;100441.34;1795257;79;25529;-71
2022/11/08 07:03:02;;;;;;;24.92;16.20;;;;;;;8.06;90.08;100444.53;1795125;79;25530;-74
2022/11/08 07:05:31;;;;;;;23.55;16.52;;;;;;;8.09;90.11;100447.97;1795239;79;26157;-72
2022/11/08 07:07:59;;;;;;;25.25;16.32;;;;;;;8.12;89.85;100448.22;1795320;79;25519;-72
2022/11/08 07:10:30;;;;;;;22.40;15.70;;;;;;;8.16;89.75;100452.48;1795173;79;28078;-72
2022/11/08 07:13:10;;;;;;;27.30;17.05;;;;;;;8.17;89.62;100452.20;1795113;79;25703;-73
2022/11/08 07:15:38;;;;;;;23.60;15.53;;;;;;;8.19;89.50;100451.91;1795223;79;25548;-77
2022/11/08 07:18:12;;;;;;;27.30;16.27;;;;;;;8.23;89.59;100463.70;1795195;79;25432;-72
2022/11/08 07:20:40;;;;;;;28.57;17.12;;;;;;;8.27;89.59;100459.89;1795243;79;25563;-69
2022/11/08 07:23:09;;;;;;;24.75;16.00;;;;;;;8.31;89.67;100463.59;1795295;79;27505;-71
2022/11/08 07:25:36;;;;;;;27.00;16.85;;;;;;;8.35;89.45;100461.94;1795077;79;26059;-67
2022/11/08 07:28:06;;;;;;;25.08;16.02;;;;;;;8.38;89.30;100466.76;1795164;79;25549;-71
2022/11/08 07:30:34;;;;;;;25.65;15.75;;;;;;;8.39;89.09;100466.47;1795137;79;25529;-71
2022/11/08 07:33:01;;;;;;;27.87;16.17;;;;;;;8.40;89.00;100469.41;1795208;79;25629;-69
2022/11/08 07:35:29;;;;;;;26.82;15.60;;;;;;;8.41;88.85;100462.94;1795151;79;27449;-69
2022/11/08 07:37:57;;;;;;;26.77;15.72;;;;;;;8.44;88.97;100466.17;1795176;79;25520;-69
2022/11/08 07:40:24;;;;;;;24.70;15.53;;;;;;;8.48;88.90;100471.22;1795194;79;25399;-68
2022/11/08 07:42:51;;;;;;;20.77;15.20;;;;;;;8.51;88.88;100465.25;1795133;79;25576;-70
2022/11/08 07:45:19;;;;;;;28.52;16.50;;;;;;;8.56;88.92;100471.92;1795255;79;25651;-70
2022/11/08 07:47:45;;;;;;;25.97;15.30;;;;;;;8.62;89.10;100465.94;1795237;79;27521;-70
2022/11/08 07:50:11;;;;;;;26.42;15.35;;;;;;;8.70;89.02;100470.65;1795100;79;33208;-68
2022/11/08 07:52:37;;;;;;;22.25;14.60;;;;;;;8.77;88.99;100471.11;1795123;79;25633;-68
2022/11/08 07:55:05;;;;;;;23.57;14.78;;;;;;;8.83;88.79;100467.78;1795083;79;25607;-69
2022/11/08 07:57:31;;;;;;;27.30;16.40;;;;;;;8.96;89.30;100463.79;1795158;79;25589;-68
2022/11/08 07:59:57;;;;;;;24.47;15.43;;;;;;;9.37;92.70;100466.94;1795137;79;27563;-68
2022/11/08 08:02:24;;;;;;;26.45;14.50;;;;;;;9.93;93.93;100467.78;1794968;79;27439;-67
2022/11/08 08:04:50;;;;;;;22.17;14.30;;;;;;;10.39;90.53;100464.98;1795173;79;25619;-66
2022/11/08 08:07:16;;;;;;;25.95;14.58;;;;;;;10.89;90.21;100465.50;1795105;79;35064;-66
2022/11/08 08:09:42;;;;;;;20.65;13.48;;;;;;;11.31;89.20;100458.55;1795167;79;25463;-66
2022/11/08 08:12:09;;;;;;;19.92;12.98;;;;;;;11.84;89.05;100460.39;1795106;80;27538;-61
2022/11/08 08:14:36;;;;;;;18.20;12.63;;;;;;;12.98;87.35;100447.03;1794942;79;32763;-61
2022/11/08 08:17:02;;;;;;;19.67;12.58;;;;;;;12.98;87.35;100447.03;1794797;79;25360;-61
2022/11/08 08:19:29;;;;;;;18.85;11.60;;;;;;;13.63;86.77;100450.00;1795284;79;25569;-63
2022/11/08 08:21:56;;;;;;;18.70;12.23;;;;;;;14.05;83.44;100453.43;1795318;79;25356;-63
2022/11/08 08:24:22;;;;;;;19.85;11.95;;;;;;;14.47;81.82;100443.97;1795311;79;27488;-63
2022/11/08 08:26:48;;;;;;;19.82;11.85;;;;;;;14.87;79.80;100453.03;1795175;79;25840;-63
2022/11/08 08:29:15;;;;;;;20.05;11.75;;;;;;;15.04;77.61;100460.25;1795288;79;25373;-64
2022/11/08 08:31:41;;;;;;;22.93;11.15;;;;;;;15.25;75.57;100452.60;1795268;79;26176;-64
2022/11/08 08:34:08;;;;;;;19.77;11.55;;;;;;;15.38;75.67;100450.14;1795319;79;25586;-64
2022/11/08 08:36:34;;;;;;;20.10;10.63;;;;;;;15.81;76.15;100454.88;1795317;79;27535;-65
2022/11/08 08:39:00;;;;;;;17.42;9.90;;;;;;;16.38;76.06;100451.79;1795288;79;25406;-64
2022/11/08 08:41:27;;;;;;;16.32;10.45;;;;;;;16.80;73.58;100454.97;1795297;79;25383;-65
2022/11/08 08:43:54;;;;;;;11.93;8.88;;;;;;;17.30;74.37;100454.78;1795297;79;26232;-64
2022/11/08 08:46:20;;;;;;;15.43;9.33;;;;;;;17.89;72.57;100453.94;1795458;79;25528;-63
2022/11/08 08:48:48;;;;;;;15.45;9.28;;;;;;;18.19;70.64;100448.55;1795405;79;27453;-63
2022/11/08 08:51:17;;;;;;;15.28;9.80;;;;;;;18.42;68.11;100454.94;1795241;79;25781;-63
2022/11/08 08:53:43;;;;;;;13.60;9.80;;;;;;;18.70;68.26;100454.53;1795404;79;25620;-63
2022/11/08 08:56:10;;;;;;;16.00;9.00;;;;;;;19.08;67.91;100462.55;1795260;79;25499;-63
2022/11/08 08:58:37;;;;;;;15.45;9.33;;;;;;;19.34;66.15;100464.58;1795290;79;25430;-64
2022/11/08 09:01:07;;;;;;;17.98;9.10;;;;;;;19.53;63.88;100460.98;1795264;79;27456;-64
2022/11/08 09:03:35;;;;;;;18.57;9.73;;;;;;;19.63;63.03;100463.70;1795275;79;25752;-64
2022/11/08 09:06:03;;;;;;;16.02;9.78;;;;;;;19.72;61.89;100456.82;1795304;79;25439;-63
2022/11/08 09:08:30;;;;;;;13.53;8.78;;;;;;;19.83;61.33;100462.50;1795272;79;25533;-64
2022/11/08 09:10:59;;;;;;;13.68;8.53;;;;;;;20.01;61.69;100459.27;1795321;79;25340;-64
2022/11/08 09:13:27;;;;;;;;;;;;;;;20.25;59.43;100465.70;1797969;79;28145;-65
2022/11/08 09:20:13;;;;;;;13.98;8.28;;;;;;;20.40;58.20;100455.70;1772142;79;25582;-65
2022/11/08 09:23:06;;;;;;;15.58;8.63;;;;;;;20.93;58.80;100456.78;1770753;80;25513;-66
2022/11/08 09:25:59;;;;;;;14.68;8.75;;;;;;;21.48;57.91;100454.80;1771659;79;25395;-65
2022/11/08 09:28:52;;;;;;;13.53;8.10;;;;;;;21.79;55.87;100462.55;1771885;79;25680;-54
2022/11/08 09:31:45;;;;;;;12.73;7.70;;;;;;;21.75;54.55;100456.80;1776434;80;25733;-54
2022/11/08 09:34:19;;;;;;;13.00;7.60;;;;;;;22.08;55.35;100459.20;1778086;80;25530;-56
2022/11/08 09:36:46;;;;;;;11.70;7.60;;;;;;;22.77;54.14;100451.52;1778308;80;26144;-53
2022/11/08 09:39:12;;;;;;;11.60;7.83;;;;;;;22.88;53.17;100461.20;1770174;80;25597;-58
2022/11/08 09:41:43;;;;;;;11.53;6.80;;;;;;;23.23;52.65;100461.13;1770431;80;27458;-57
2022/11/08 09:44:38;;;;;;;12.80;7.22;;;;;;;23.42;52.03;100460.75;1769738;80;27306;-56
2022/11/08 09:47:15;;;;;;;9.05;7.25;;;;;;;23.32;50.21;100458.77;1769208;80;25736;-54
2022/11/08 09:49:50;;;;;;;13.32;7.95;;;;;;;23.35;50.16;100446.95;1769785;80;25433;-48
2022/11/08 09:52:23;;;;;;;10.23;6.83;;;;;;;23.29;49.21;100455.41;1768939;80;25380;-56
2022/11/08 09:54:54;;;;;;;11.57;7.15;;;;;;;23.19;49.91;100450.66;1770110;81;27408;-55
2022/11/08 09:57:29;;;;;;;10.95;6.60;;;;;;;23.64;50.44;100452.49;1778344;80;25595;-58
2022/11/08 10:00:05;;;;;;;11.10;7.03;;;;;;;24.21;50.12;100446.13;1776599;80;25376;-57
2022/11/08 10:02:35;;;;;;;13.70;6.70;;;;;;;24.78;48.71;100454.86;1770141;81;25524;-55
2022/11/08 10:05:10;;;;;;;12.73;7.47;;;;;;;24.91;47.67;100452.41;1770064;81;25350;-57
2022/11/08 10:07:50;;;;;;;13.50;7.50;;;;;;;25.00;46.54;100443.69;1769911;80;27422;-55
2022/11/08 10:10:37;;;;;;;12.65;7.03;;;;;;;25.20;46.28;100453.63;1770080;81;27272;-58
2022/11/08 10:13:32;;;;;;;13.78;7.17;;;;;;;25.62;44.96;100458.08;1770112;81;25378;-54
2022/11/08 10:16:24;;;;;;;11.95;6.22;;;;;;;25.61;44.14;100453.76;1770144;81;26231;-57
2022/11/08 10:19:17;;;;;;;11.20;6.75;;;;;;;25.39;43.57;100446.22;1762020;81;25419;-59
2022/11/08 10:22:24;;;;;;;10.13;6.30;;;;;;;25.34;43.81;100443.87;1749948;81;27607;-55
2022/11/08 10:25:00;;;;;;;7.37;5.80;;;;;;;25.13;42.86;100439.23;1693565;84;25856;-56
2022/11/08 10:27:40;;;;;;;15.00;7.05;;;;;;;25.37;44.08;100442.27;1712610;83;25429;-56
2022/11/08 10:30:23;;;;;;;10.00;6.25;;;;;;;25.57;43.93;100445.28;1712329;83;25667;-57
2022/11/08 10:32:57;;;;;;;9.60;5.80;;;;;;;25.77;44.01;100441.36;1690115;84;25754;-56
2022/11/08 10:35:37;;;;;;;8.85;5.97;;;;;;;25.95;42.89;100443.97;1690138;84;28172;-58
2022/11/08 10:38:20;;;;;;;13.35;5.92;;;;;;;25.77;40.93;100443.52;1690025;84;25859;-58
2022/11/08 10:40:57;;;;;;;8.65;5.67;;;;;;;25.16;42.73;100433.70;1690141;84;25670;-56
2022/11/08 10:43:40;;;;;;;8.53;5.62;;;;;;;25.04;42.97;100425.84;1664564;86;25754;-59
2022/11/08 10:46:17;;;;;;;11.73;5.67;;;;;;;24.84;42.09;100418.65;1663257;86;25731;-51
2022/11/08 10:48:44;;;;;;;9.73;5.47;;;;;;;24.36;42.78;100431.08;1661696;86;27566;-49
2022/11/08 10:51:10;;;;;;;11.43;5.58;;;;;;;24.19;41.71;100431.92;1664488;86;25510;-49
2022/11/08 10:53:41;;;;;;;10.53;5.75;;;;;;;23.98;42.46;100435.53;1657184;86;25513;-49
2022/11/08 10:56:08;;;;;;;9.80;6.08;;;;;;;23.79;43.24;100422.91;1640530;87;27880;-49
2022/11/08 10:58:42;;;;;;;8.30;5.00;;;;;;;23.92;43.78;100428.22;1640602;87;25648;-49
2022/11/08 11:01:19;;;;;;;10.05;5.92;;;;;;;23.98;43.65;100421.12;1640503;87;27698;-49
2022/11/08 11:03:48;;;;;;;10.05;4.97;;;;;;;24.27;43.87;100421.66;1640493;87;25468;-47
2022/11/08 11:06:32;;;;;;;8.03;5.00;;;;;;;24.19;42.59;100410.59;1640556;87;25524;-48
2022/11/08 11:09:12;;;;;;;7.33;4.35;;;;;;;23.97;42.36;100409.89;1647923;86;25619;-50
2022/11/08 11:11:39;;;;;;;7.62;4.35;;;;;;;23.88;42.81;100414.24;1664532;86;25233;-48
2022/11/08 11:14:17;;;;;;;8.95;4.70;;;;;;;23.69;42.70;100405.94;1669239;86;27452;-48
2022/11/08 11:17:03;;;;;;;6.67;4.25;;;;;;;23.37;42.26;100405.95;1645044;85;25860;-50
2022/11/08 11:19:30;;;;;;;8.05;4.22;;;;;;;22.83;41.77;100405.86;1644756;86;25593;-49
2022/11/08 11:22:29;;;;;;;7.47;4.00;;;;;;;22.52;42.88;100404.55;1688806;85;25619;-49
2022/11/08 11:24:56;;;;;;;;;;;;;;;22.30;42.87;100387.92;1630550;87;25443;-50
2022/11/08 11:27:37;;;;;;;5.87;3.55;;;;;;;22.19;43.55;100400.84;1635654;87;27619;-50
2022/11/08 11:30:21;;;;;;;9.93;3.92;;;;;;;21.99;44.24;100393.44;1635525;87;25461;-50
2022/11/08 11:33:11;;;;;;;5.92;4.08;;;;;;;21.64;45.60;100392.83;1632574;87;25488;-50
2022/11/08 11:35:57;;;;;;;5.47;3.27;;;;;;;21.67;45.43;100394.61;1634358;87;25590;-51
2022/11/08 11:38:50;;;;;;;4.95;3.22;;;;;;;21.66;45.26;100392.45;1635714;87;25570;-50
2022/11/08 11:41:43;;;;;;;7.35;3.35;;;;;;;21.65;44.81;100392.23;1635539;87;27579;-51
2022/11/08 11:44:27;;;;;;;6.20;3.65;;;;;;;21.45;45.93;100392.46;1634792;87;25633;-64
2022/11/08 11:47:08;;;;;;;8.80;4.03;;;;;;;21.24;44.38;100397.77;1635690;87;25612;-65
2022/11/08 11:49:35;;;;;;;7.80;3.80;;;;;;;20.76;45.36;100394.34;1631663;87;25615;-65
2022/11/08 11:52:01;;;;;;;5.70;3.37;;;;;;;20.78;46.22;100389.26;1635704;87;25448;-67
2022/11/08 11:54:31;;;;;;;7.55;3.30;;;;;;;20.65;45.64;100381.87;1635663;87;27514;-67
2022/11/08 11:57:10;;;;;;;6.53;4.05;;;;;;;20.55;45.97;100385.81;1635592;87;25634;-67
2022/11/08 12:00:06;;;;;;;11.83;4.33;;;;;;;20.53;46.41;100389.75;1635918;87;25691;-67
2022/11/08 12:02:53;;;;;;;6.72;4.00;;;;;;;20.61;46.07;100384.33;1635610;87;25901;-66